sensor_id;sensor_type;location;lat;lon;timestamp;P1;durP1;ratioP1;P2;durP2;ratioP2
14704;SDS011;7442;50.840;3.396;2024-03-08T00:00:39;5.70;;;4.90;;
14704;SDS011;7442;50.840;3.396;2024-03-08T00:03:11;6.58;;;5.28;;
14704;SDS011;7442;50.840;3.396;2024-03-08T00:05:41;5.62;;;5.03;;
14704;SDS011;7442;50.840;3.396;2024-03-08T00:08:11;5.95;;;5.05;;
14704;SDS011;7442;50.840;3.396;2024-03-08T00:10:41;6.08;;;5.50;;
14704;SDS011;7442;50.840;3.396;2024-03-08T00:13:11;6.40;;;5.75;;
14704;SDS011;7442;50.840;3.396;2024-03-08T00:15:41;5.40;;;4.87;;
14704;SDS011;7442;50.840;3.396;2024-03-08T00:18:11;5.40;;;4.85;;
14704;SDS011;7442;50.840;3.396;2024-03-08T00:20:48;5.72;;;5.12;;
14704;SDS011;7442;50.840;3.396;2024-03-08T00:23:19;7.53;;;5.28;;
14704;SDS011;7442;50.840;3.396;2024-03-08T00:25:49;5.55;;;5.05;;
14704;SDS011;7442;50.840;3.396;2024-03-08T00:28:19;7.35;;;5.40;;
14704;SDS011;7442;50.840;3.396;2024-03-08T00:30:56;7.37;;;5.87;;
14704;SDS011;7442;50.840;3.396;2024-03-08T00:33:26;6.53;;;5.65;;
14704;SDS011;7442;50.840;3.396;2024-03-08T00:35:56;5.87;;;5.28;;
14704;SDS011;7442;50.840;3.396;2024-03-08T00:38:26;5.95;;;5.05;;
14704;SDS011;7442;50.840;3.396;2024-03-08T00:40:56;5.30;;;4.80;;
14704;SDS011;7442;50.840;3.396;2024-03-08T00:43:26;6.05;;;5.45;;
14704;SDS011;7442;50.840;3.396;2024-03-08T00:45:58;5.28;;;4.78;;
14704;SDS011;7442;50.840;3.396;2024-03-08T00:48:29;5.15;;;4.65;;
14704;SDS011;7442;50.840;3.396;2024-03-08T00:50:59;6.37;;;5.37;;
14704;SDS011;7442;50.840;3.396;2024-03-08T00:53:30;5.60;;;5.10;;
14704;SDS011;7442;50.840;3.396;2024-03-08T00:56:00;7.12;;;5.47;;
14704;SDS011;7442;50.840;3.396;2024-03-08T00:58:30;5.75;;;5.12;;
14704;SDS011;7442;50.840;3.396;2024-03-08T01:01:00;5.37;;;4.87;;
14704;SDS011;7442;50.840;3.396;2024-03-08T01:03:31;5.72;;;4.72;;
14704;SDS011;7442;50.840;3.396;2024-03-08T01:06:02;5.33;;;4.83;;
14704;SDS011;7442;50.840;3.396;2024-03-08T01:08:32;5.22;;;4.72;;
14704;SDS011;7442;50.840;3.396;2024-03-08T01:11:02;5.72;;;5.12;;
14704;SDS011;7442;50.840;3.396;2024-03-08T01:13:33;5.25;;;4.75;;
14704;SDS011;7442;50.840;3.396;2024-03-08T01:16:04;8.25;;;5.53;;
14704;SDS011;7442;50.840;3.396;2024-03-08T01:18:35;5.83;;;5.05;;
14704;SDS011;7442;50.840;3.396;2024-03-08T01:21:05;5.75;;;5.03;;
14704;SDS011;7442;50.840;3.396;2024-03-08T01:23:35;5.60;;;5.10;;
14704;SDS011;7442;50.840;3.396;2024-03-08T01:26:05;5.28;;;4.85;;
14704;SDS011;7442;50.840;3.396;2024-03-08T01:28:35;5.58;;;4.92;;
14704;SDS011;7442;50.840;3.396;2024-03-08T01:31:05;5.10;;;4.60;;
14704;SDS011;7442;50.840;3.396;2024-03-08T01:33:35;5.47;;;4.97;;
14704;SDS011;7442;50.840;3.396;2024-03-08T01:36:06;5.70;;;5.12;;
14704;SDS011;7442;50.840;3.396;2024-03-08T01:38:36;5.62;;;5.12;;
14704;SDS011;7442;50.840;3.396;2024-03-08T01:41:06;5.42;;;4.90;;
14704;SDS011;7442;50.840;3.396;2024-03-08T01:43:37;5.42;;;4.67;;
14704;SDS011;7442;50.840;3.396;2024-03-08T01:46:07;5.40;;;4.90;;
14704;SDS011;7442;50.840;3.396;2024-03-08T01:48:41;5.60;;;5.10;;
14704;SDS011;7442;50.840;3.396;2024-03-08T01:51:11;4.90;;;4.50;;
14704;SDS011;7442;50.840;3.396;2024-03-08T01:53:43;5.12;;;4.62;;
14704;SDS011;7442;50.840;3.396;2024-03-08T01:56:15;6.30;;;5.08;;
14704;SDS011;7442;50.840;3.396;2024-03-08T01:58:46;5.72;;;5.20;;
14704;SDS011;7442;50.840;3.396;2024-03-08T02:01:16;5.05;;;4.55;;
14704;SDS011;7442;50.840;3.396;2024-03-08T02:03:49;5.37;;;4.87;;
14704;SDS011;7442;50.840;3.396;2024-03-08T02:06:19;5.55;;;5.05;;
14704;SDS011;7442;50.840;3.396;2024-03-08T02:08:49;4.78;;;4.37;;
14704;SDS011;7442;50.840;3.396;2024-03-08T02:11:19;4.85;;;4.35;;
14704;SDS011;7442;50.840;3.396;2024-03-08T02:13:49;5.65;;;5.03;;
14704;SDS011;7442;50.840;3.396;2024-03-08T02:16:20;5.53;;;4.97;;
14704;SDS011;7442;50.840;3.396;2024-03-08T02:18:51;5.30;;;4.80;;
14704;SDS011;7442;50.840;3.396;2024-03-08T02:21:21;5.10;;;4.62;;
14704;SDS011;7442;50.840;3.396;2024-03-08T02:23:51;5.33;;;4.83;;
14704;SDS011;7442;50.840;3.396;2024-03-08T02:26:21;4.90;;;4.40;;
14704;SDS011;7442;50.840;3.396;2024-03-08T02:28:51;5.45;;;4.90;;
14704;SDS011;7442;50.840;3.396;2024-03-08T02:31:21;5.67;;;5.17;;
14704;SDS011;7442;50.840;3.396;2024-03-08T02:33:51;5.47;;;4.97;;
14704;SDS011;7442;50.840;3.396;2024-03-08T02:36:21;4.50;;;4.10;;
14704;SDS011;7442;50.840;3.396;2024-03-08T02:38:51;6.03;;;4.78;;
14704;SDS011;7442;50.840;3.396;2024-03-08T02:41:23;5.47;;;4.97;;
14704;SDS011;7442;50.840;3.396;2024-03-08T02:43:53;5.83;;;5.20;;
14704;SDS011;7442;50.840;3.396;2024-03-08T02:46:23;5.05;;;4.60;;
14704;SDS011;7442;50.840;3.396;2024-03-08T02:48:53;5.45;;;4.90;;
14704;SDS011;7442;50.840;3.396;2024-03-08T02:51:23;5.75;;;5.15;;
14704;SDS011;7442;50.840;3.396;2024-03-08T02:53:54;5.67;;;5.15;;
14704;SDS011;7442;50.840;3.396;2024-03-08T02:56:24;4.90;;;4.40;;
14704;SDS011;7442;50.840;3.396;2024-03-08T02:58:54;5.37;;;4.80;;
14704;SDS011;7442;50.840;3.396;2024-03-08T03:01:24;5.33;;;4.83;;
14704;SDS011;7442;50.840;3.396;2024-03-08T03:03:54;6.10;;;4.70;;
14704;SDS011;7442;50.840;3.396;2024-03-08T03:06:24;6.03;;;5.30;;
14704;SDS011;7442;50.840;3.396;2024-03-08T03:08:55;4.78;;;4.33;;
14704;SDS011;7442;50.840;3.396;2024-03-08T03:11:25;5.85;;;5.35;;
14704;SDS011;7442;50.840;3.396;2024-03-08T03:13:55;5.42;;;4.92;;
14704;SDS011;7442;50.840;3.396;2024-03-08T03:16:25;5.42;;;4.92;;
14704;SDS011;7442;50.840;3.396;2024-03-08T03:18:55;5.28;;;4.78;;
14704;SDS011;7442;50.840;3.396;2024-03-08T03:21:28;5.22;;;4.72;;
14704;SDS011;7442;50.840;3.396;2024-03-08T03:24:00;5.37;;;4.87;;
14704;SDS011;7442;50.840;3.396;2024-03-08T03:26:30;5.20;;;4.70;;
14704;SDS011;7442;50.840;3.396;2024-03-08T03:29:00;5.90;;;5.30;;
14704;SDS011;7442;50.840;3.396;2024-03-08T03:31:31;5.17;;;4.65;;
14704;SDS011;7442;50.840;3.396;2024-03-08T03:34:01;5.22;;;4.72;;
14704;SDS011;7442;50.840;3.396;2024-03-08T03:36:32;4.75;;;4.35;;
14704;SDS011;7442;50.840;3.396;2024-03-08T03:39:03;5.80;;;5.20;;
14704;SDS011;7442;50.840;3.396;2024-03-08T03:41:35;5.87;;;4.90;;
14704;SDS011;7442;50.840;3.396;2024-03-08T03:44:06;5.67;;;5.08;;
14704;SDS011;7442;50.840;3.396;2024-03-08T03:46:41;5.53;;;4.95;;
14704;SDS011;7442;50.840;3.396;2024-03-08T03:49:12;5.78;;;5.20;;
14704;SDS011;7442;50.840;3.396;2024-03-08T03:51:43;5.92;;;4.83;;
14704;SDS011;7442;50.840;3.396;2024-03-08T03:54:13;5.45;;;4.95;;
14704;SDS011;7442;50.840;3.396;2024-03-08T03:56:43;5.53;;;5.03;;
14704;SDS011;7442;50.840;3.396;2024-03-08T03:59:14;5.62;;;5.12;;
14704;SDS011;7442;50.840;3.396;2024-03-08T04:01:44;5.37;;;4.87;;
14704;SDS011;7442;50.840;3.396;2024-03-08T04:04:14;5.45;;;4.95;;
14704;SDS011;7442;50.840;3.396;2024-03-08T04:06:44;5.75;;;5.15;;
14704;SDS011;7442;50.840;3.396;2024-03-08T04:09:14;5.55;;;5.05;;
14704;SDS011;7442;50.840;3.396;2024-03-08T04:11:46;6.03;;;5.22;;
14704;SDS011;7442;50.840;3.396;2024-03-08T04:14:18;5.30;;;4.80;;
14704;SDS011;7442;50.840;3.396;2024-03-08T04:16:48;4.87;;;4.47;;
14704;SDS011;7442;50.840;3.396;2024-03-08T04:19:18;5.53;;;5.03;;
14704;SDS011;7442;50.840;3.396;2024-03-08T04:21:48;5.62;;;5.08;;
14704;SDS011;7442;50.840;3.396;2024-03-08T04:24:18;5.62;;;5.03;;
14704;SDS011;7442;50.840;3.396;2024-03-08T04:26:48;5.97;;;4.85;;
14704;SDS011;7442;50.840;3.396;2024-03-08T04:29:19;5.12;;;4.62;;
14704;SDS011;7442;50.840;3.396;2024-03-08T04:31:57;5.30;;;4.80;;
14704;SDS011;7442;50.840;3.396;2024-03-08T04:34:34;5.50;;;5.00;;
14704;SDS011;7442;50.840;3.396;2024-03-08T04:37:04;6.17;;;5.20;;
14704;SDS011;7442;50.840;3.396;2024-03-08T04:39:34;5.45;;;4.90;;
14704;SDS011;7442;50.840;3.396;2024-03-08T04:42:04;5.55;;;5.05;;
14704;SDS011;7442;50.840;3.396;2024-03-08T04:44:39;5.47;;;4.97;;
14704;SDS011;7442;50.840;3.396;2024-03-08T04:47:09;5.53;;;5.03;;
14704;SDS011;7442;50.840;3.396;2024-03-08T04:49:39;5.30;;;4.80;;
14704;SDS011;7442;50.840;3.396;2024-03-08T04:52:09;5.25;;;4.75;;
14704;SDS011;7442;50.840;3.396;2024-03-08T04:54:40;5.85;;;4.75;;
14704;SDS011;7442;50.840;3.396;2024-03-08T04:57:10;5.12;;;4.62;;
14704;SDS011;7442;50.840;3.396;2024-03-08T04:59:40;5.80;;;5.20;;
14704;SDS011;7442;50.840;3.396;2024-03-08T05:02:10;5.85;;;5.28;;
14704;SDS011;7442;50.840;3.396;2024-03-08T05:04:40;5.92;;;4.97;;
14704;SDS011;7442;50.840;3.396;2024-03-08T05:07:10;5.72;;;4.72;;
14704;SDS011;7442;50.840;3.396;2024-03-08T05:09:40;5.50;;;4.90;;
14704;SDS011;7442;50.840;3.396;2024-03-08T05:12:10;5.25;;;4.70;;
14704;SDS011;7442;50.840;3.396;2024-03-08T05:14:41;5.22;;;4.72;;
14704;SDS011;7442;50.840;3.396;2024-03-08T05:17:17;5.22;;;4.72;;
14704;SDS011;7442;50.840;3.396;2024-03-08T05:19:47;5.50;;;4.90;;
14704;SDS011;7442;50.840;3.396;2024-03-08T05:22:17;5.50;;;5.00;;
14704;SDS011;7442;50.840;3.396;2024-03-08T05:24:47;5.83;;;5.22;;
14704;SDS011;7442;50.840;3.396;2024-03-08T05:27:17;5.10;;;4.60;;
14704;SDS011;7442;50.840;3.396;2024-03-08T05:29:48;5.40;;;4.90;;
14704;SDS011;7442;50.840;3.396;2024-03-08T05:32:18;5.30;;;4.80;;
14704;SDS011;7442;50.840;3.396;2024-03-08T05:34:48;5.22;;;4.72;;
14704;SDS011;7442;50.840;3.396;2024-03-08T05:37:18;5.28;;;4.78;;
14704;SDS011;7442;50.840;3.396;2024-03-08T05:39:49;5.53;;;5.00;;
14704;SDS011;7442;50.840;3.396;2024-03-08T05:42:25;5.70;;;5.10;;
14704;SDS011;7442;50.840;3.396;2024-03-08T05:44:56;5.40;;;4.87;;
14704;SDS011;7442;50.840;3.396;2024-03-08T05:47:27;5.37;;;4.85;;
14704;SDS011;7442;50.840;3.396;2024-03-08T05:49:57;5.65;;;5.10;;
14704;SDS011;7442;50.840;3.396;2024-03-08T05:52:28;5.15;;;4.67;;
14704;SDS011;7442;50.840;3.396;2024-03-08T05:54:58;5.30;;;4.80;;
14704;SDS011;7442;50.840;3.396;2024-03-08T05:57:28;5.50;;;5.00;;
14704;SDS011;7442;50.840;3.396;2024-03-08T05:59:58;5.67;;;5.08;;
14704;SDS011;7442;50.840;3.396;2024-03-08T06:02:28;5.10;;;4.65;;
14704;SDS011;7442;50.840;3.396;2024-03-08T06:04:58;5.15;;;4.65;;
14704;SDS011;7442;50.840;3.396;2024-03-08T06:07:30;5.28;;;4.78;;
14704;SDS011;7442;50.840;3.396;2024-03-08T06:10:03;5.47;;;4.97;;
14704;SDS011;7442;50.840;3.396;2024-03-08T06:12:35;5.22;;;4.72;;
14704;SDS011;7442;50.840;3.396;2024-03-08T06:15:07;5.25;;;4.80;;
14704;SDS011;7442;50.840;3.396;2024-03-08T06:17:38;5.15;;;4.65;;
14704;SDS011;7442;50.840;3.396;2024-03-08T06:20:08;5.47;;;4.97;;
14704;SDS011;7442;50.840;3.396;2024-03-08T06:22:44;5.03;;;4.53;;
14704;SDS011;7442;50.840;3.396;2024-03-08T06:25:11;5.50;;;5.00;;
14704;SDS011;7442;50.840;3.396;2024-03-08T06:27:44;5.00;;;4.60;;
14704;SDS011;7442;50.840;3.396;2024-03-08T06:30:15;5.75;;;5.25;;
14704;SDS011;7442;50.840;3.396;2024-03-08T06:32:45;5.17;;;4.67;;
14704;SDS011;7442;50.840;3.396;2024-03-08T06:35:15;4.87;;;4.37;;
14704;SDS011;7442;50.840;3.396;2024-03-08T06:37:45;4.53;;;4.12;;
14704;SDS011;7442;50.840;3.396;2024-03-08T06:40:15;5.10;;;4.67;;
14704;SDS011;7442;50.840;3.396;2024-03-08T06:42:45;5.05;;;4.55;;
14704;SDS011;7442;50.840;3.396;2024-03-08T06:45:15;6.00;;;5.00;;
14704;SDS011;7442;50.840;3.396;2024-03-08T06:47:47;5.78;;;5.15;;
14704;SDS011;7442;50.840;3.396;2024-03-08T06:50:17;5.22;;;4.72;;
14704;SDS011;7442;50.840;3.396;2024-03-08T06:52:48;5.30;;;4.80;;
14704;SDS011;7442;50.840;3.396;2024-03-08T06:55:20;5.30;;;4.80;;
14704;SDS011;7442;50.840;3.396;2024-03-08T06:57:50;4.95;;;4.45;;
14704;SDS011;7442;50.840;3.396;2024-03-08T07:00:20;5.15;;;4.65;;
14704;SDS011;7442;50.840;3.396;2024-03-08T07:02:52;6.22;;;4.97;;
14704;SDS011;7442;50.840;3.396;2024-03-08T07:05:22;5.25;;;4.70;;
14704;SDS011;7442;50.840;3.396;2024-03-08T07:07:52;5.37;;;4.87;;
14704;SDS011;7442;50.840;3.396;2024-03-08T07:10:23;5.58;;;4.85;;
14704;SDS011;7442;50.840;3.396;2024-03-08T07:12:53;5.55;;;4.90;;
14704;SDS011;7442;50.840;3.396;2024-03-08T07:15:23;5.33;;;4.83;;
14704;SDS011;7442;50.840;3.396;2024-03-08T07:17:54;5.08;;;4.58;;
14704;SDS011;7442;50.840;3.396;2024-03-08T07:20:24;7.00;;;5.05;;
14704;SDS011;7442;50.840;3.396;2024-03-08T07:22:54;5.20;;;4.70;;
14704;SDS011;7442;50.840;3.396;2024-03-08T07:25:24;5.33;;;4.80;;
14704;SDS011;7442;50.840;3.396;2024-03-08T07:27:56;6.35;;;5.05;;
14704;SDS011;7442;50.840;3.396;2024-03-08T07:30:26;4.90;;;4.40;;
14704;SDS011;7442;50.840;3.396;2024-03-08T07:33:19;5.05;;;4.55;;
14704;SDS011;7442;50.840;3.396;2024-03-08T07:35:51;5.53;;;4.75;;
14704;SDS011;7442;50.840;3.396;2024-03-08T07:38:21;5.20;;;4.80;;
14704;SDS011;7442;50.840;3.396;2024-03-08T07:40:51;5.28;;;4.78;;
14704;SDS011;7442;50.840;3.396;2024-03-08T07:43:21;5.12;;;4.62;;
14704;SDS011;7442;50.840;3.396;2024-03-08T07:45:51;5.03;;;4.53;;
14704;SDS011;7442;50.840;3.396;2024-03-08T07:48:23;5.30;;;4.75;;
14704;SDS011;7442;50.840;3.396;2024-03-08T07:50:54;9.35;;;4.90;;
14704;SDS011;7442;50.840;3.396;2024-03-08T07:53:24;5.97;;;4.53;;
14704;SDS011;7442;50.840;3.396;2024-03-08T07:55:54;6.35;;;4.72;;
14704;SDS011;7442;50.840;3.396;2024-03-08T07:58:24;6.90;;;4.67;;
14704;SDS011;7442;50.840;3.396;2024-03-08T08:00:55;6.37;;;5.08;;
14704;SDS011;7442;50.840;3.396;2024-03-08T08:03:25;5.22;;;4.72;;
14704;SDS011;7442;50.840;3.396;2024-03-08T08:05:55;7.22;;;5.05;;
14704;SDS011;7442;50.840;3.396;2024-03-08T08:08:25;7.28;;;5.12;;
14704;SDS011;7442;50.840;3.396;2024-03-08T08:10:55;7.65;;;4.87;;
14704;SDS011;7442;50.840;3.396;2024-03-08T08:13:25;5.70;;;5.03;;
14704;SDS011;7442;50.840;3.396;2024-03-08T08:15:57;8.80;;;5.40;;
14704;SDS011;7442;50.840;3.396;2024-03-08T08:18:27;7.12;;;5.30;;
14704;SDS011;7442;50.840;3.396;2024-03-08T08:20:57;7.03;;;4.95;;
14704;SDS011;7442;50.840;3.396;2024-03-08T08:23:29;8.15;;;4.95;;
14704;SDS011;7442;50.840;3.396;2024-03-08T08:26:00;11.30;;;5.10;;
14704;SDS011;7442;50.840;3.396;2024-03-08T08:28:31;8.13;;;4.55;;
14704;SDS011;7442;50.840;3.396;2024-03-08T08:31:01;6.87;;;4.78;;
14704;SDS011;7442;50.840;3.396;2024-03-08T08:33:32;7.37;;;4.83;;
14704;SDS011;7442;50.840;3.396;2024-03-08T08:36:03;9.78;;;5.22;;
14704;SDS011;7442;50.840;3.396;2024-03-08T08:38:34;8.78;;;4.90;;
14704;SDS011;7442;50.840;3.396;2024-03-08T08:41:04;10.55;;;5.15;;
14704;SDS011;7442;50.840;3.396;2024-03-08T08:43:34;9.45;;;5.10;;
14704;SDS011;7442;50.840;3.396;2024-03-08T08:46:04;9.15;;;5.17;;
14704;SDS011;7442;50.840;3.396;2024-03-08T08:48:34;6.90;;;4.90;;
14704;SDS011;7442;50.840;3.396;2024-03-08T08:51:04;6.47;;;5.10;;
14704;SDS011;7442;50.840;3.396;2024-03-08T08:53:34;7.75;;;5.50;;
14704;SDS011;7442;50.840;3.396;2024-03-08T08:56:10;13.32;;;5.67;;
14704;SDS011;7442;50.840;3.396;2024-03-08T08:58:44;6.42;;;5.03;;
14704;SDS011;7442;50.840;3.396;2024-03-08T09:01:14;8.20;;;5.30;;
14704;SDS011;7442;50.840;3.396;2024-03-08T09:03:46;6.20;;;5.17;;
14704;SDS011;7442;50.840;3.396;2024-03-08T09:06:16;8.05;;;5.15;;
14704;SDS011;7442;50.840;3.396;2024-03-08T09:08:46;5.53;;;5.03;;
14704;SDS011;7442;50.840;3.396;2024-03-08T09:11:16;7.92;;;5.67;;
14704;SDS011;7442;50.840;3.396;2024-03-08T09:13:46;12.53;;;5.45;;
14704;SDS011;7442;50.840;3.396;2024-03-08T09:16:17;5.72;;;4.85;;
14704;SDS011;7442;50.840;3.396;2024-03-08T09:18:47;7.25;;;4.83;;
14704;SDS011;7442;50.840;3.396;2024-03-08T09:21:17;6.90;;;4.95;;
14704;SDS011;7442;50.840;3.396;2024-03-08T09:23:47;7.05;;;5.03;;
14704;SDS011;7442;50.840;3.396;2024-03-08T09:26:18;5.22;;;4.65;;
14704;SDS011;7442;50.840;3.396;2024-03-08T09:28:48;10.80;;;5.22;;
14704;SDS011;7442;50.840;3.396;2024-03-08T09:31:18;7.42;;;5.15;;
14704;SDS011;7442;50.840;3.396;2024-03-08T09:33:48;7.55;;;5.75;;
14704;SDS011;7442;50.840;3.396;2024-03-08T09:36:19;7.30;;;5.03;;
14704;SDS011;7442;50.840;3.396;2024-03-08T09:38:49;6.05;;;4.70;;
14704;SDS011;7442;50.840;3.396;2024-03-08T09:41:19;8.03;;;5.47;;
14704;SDS011;7442;50.840;3.396;2024-03-08T09:43:49;5.33;;;4.83;;
14704;SDS011;7442;50.840;3.396;2024-03-08T09:46:20;5.58;;;4.95;;
14704;SDS011;7442;50.840;3.396;2024-03-08T09:48:58;6.80;;;5.08;;
14704;SDS011;7442;50.840;3.396;2024-03-08T09:51:29;5.60;;;5.10;;
14704;SDS011;7442;50.840;3.396;2024-03-08T09:54:03;8.40;;;5.35;;
14704;SDS011;7442;50.840;3.396;2024-03-08T09:56:34;7.85;;;4.85;;
14704;SDS011;7442;50.840;3.396;2024-03-08T09:59:05;9.85;;;5.87;;
14704;SDS011;7442;50.840;3.396;2024-03-08T10:01:37;8.93;;;6.08;;
14704;SDS011;7442;50.840;3.396;2024-03-08T10:04:08;9.28;;;4.80;;
14704;SDS011;7442;50.840;3.396;2024-03-08T10:06:39;5.53;;;4.95;;
14704;SDS011;7442;50.840;3.396;2024-03-08T10:09:09;10.45;;;7.60;;
14704;SDS011;7442;50.840;3.396;2024-03-08T10:11:40;13.65;;;8.40;;
14704;SDS011;7442;50.840;3.396;2024-03-08T10:14:10;11.75;;;6.50;;
14704;SDS011;7442;50.840;3.396;2024-03-08T10:16:41;11.75;;;6.10;;
14704;SDS011;7442;50.840;3.396;2024-03-08T10:19:11;9.18;;;6.03;;
14704;SDS011;7442;50.840;3.396;2024-03-08T10:21:50;7.30;;;6.10;;
14704;SDS011;7442;50.840;3.396;2024-03-08T10:24:26;11.27;;;6.00;;
14704;SDS011;7442;50.840;3.396;2024-03-08T10:27:00;9.50;;;6.03;;
14704;SDS011;7442;50.840;3.396;2024-03-08T10:29:33;5.87;;;5.28;;
14704;SDS011;7442;50.840;3.396;2024-03-08T10:32:04;7.67;;;5.53;;
14704;SDS011;7442;50.840;3.396;2024-03-08T10:34:35;9.00;;;5.15;;
14704;SDS011;7442;50.840;3.396;2024-03-08T10:37:05;6.37;;;5.45;;
14704;SDS011;7442;50.840;3.396;2024-03-08T10:39:38;5.67;;;5.15;;
14704;SDS011;7442;50.840;3.396;2024-03-08T10:42:12;7.55;;;5.20;;
14704;SDS011;7442;50.840;3.396;2024-03-08T10:44:49;7.80;;;5.30;;
14704;SDS011;7442;50.840;3.396;2024-03-08T10:47:26;10.23;;;5.87;;
14704;SDS011;7442;50.840;3.396;2024-03-08T10:50:19;6.03;;;5.20;;
14704;SDS011;7442;50.840;3.396;2024-03-08T10:52:53;7.72;;;5.60;;
14704;SDS011;7442;50.840;3.396;2024-03-08T10:55:28;8.55;;;5.78;;
14704;SDS011;7442;50.840;3.396;2024-03-08T10:58:01;7.33;;;5.45;;
14704;SDS011;7442;50.840;3.396;2024-03-08T11:00:32;7.62;;;5.12;;
14704;SDS011;7442;50.840;3.396;2024-03-08T11:03:02;7.53;;;5.03;;
14704;SDS011;7442;50.840;3.396;2024-03-08T11:05:39;5.70;;;5.20;;
14704;SDS011;7442;50.840;3.396;2024-03-08T11:10:53;7.33;;;5.62;;
14704;SDS011;7442;50.840;3.396;2024-03-08T11:13:34;8.97;;;5.70;;
14704;SDS011;7442;50.840;3.396;2024-03-08T11:16:09;9.70;;;5.78;;
14704;SDS011;7442;50.840;3.396;2024-03-08T11:18:40;7.70;;;5.87;;
14704;SDS011;7442;50.840;3.396;2024-03-08T11:21:10;11.57;;;6.62;;
14704;SDS011;7442;50.840;3.396;2024-03-08T11:23:41;14.93;;;7.08;;
14704;SDS011;7442;50.840;3.396;2024-03-08T11:26:18;14.10;;;7.75;;
14704;SDS011;7442;50.840;3.396;2024-03-08T11:28:49;19.98;;;8.23;;
14704;SDS011;7442;50.840;3.396;2024-03-08T11:31:24;10.53;;;6.33;;
14704;SDS011;7442;50.840;3.396;2024-03-08T11:33:55;14.13;;;7.60;;
14704;SDS011;7442;50.840;3.396;2024-03-08T11:36:26;16.90;;;7.15;;
14704;SDS011;7442;50.840;3.396;2024-03-08T11:38:57;17.42;;;7.45;;
14704;SDS011;7442;50.840;3.396;2024-03-08T11:41:29;12.78;;;6.78;;
14704;SDS011;7442;50.840;3.396;2024-03-08T11:44:03;15.53;;;6.75;;
14704;SDS011;7442;50.840;3.396;2024-03-08T11:46:34;15.75;;;7.00;;
14704;SDS011;7442;50.840;3.396;2024-03-08T11:49:04;13.00;;;6.70;;
14704;SDS011;7442;50.840;3.396;2024-03-08T11:51:34;18.67;;;7.40;;
14704;SDS011;7442;50.840;3.396;2024-03-08T11:54:05;14.33;;;7.15;;
14704;SDS011;7442;50.840;3.396;2024-03-08T11:56:37;12.75;;;6.30;;
14704;SDS011;7442;50.840;3.396;2024-03-08T11:59:12;12.78;;;6.60;;
14704;SDS011;7442;50.840;3.396;2024-03-08T12:01:43;16.93;;;6.10;;
14704;SDS011;7442;50.840;3.396;2024-03-08T12:04:16;22.50;;;6.97;;
14704;SDS011;7442;50.840;3.396;2024-03-08T12:06:46;13.70;;;5.90;;
14704;SDS011;7442;50.840;3.396;2024-03-08T12:09:16;14.40;;;6.55;;
14704;SDS011;7442;50.840;3.396;2024-03-08T12:11:50;18.35;;;6.80;;
14704;SDS011;7442;50.840;3.396;2024-03-08T12:14:21;17.90;;;6.37;;
14704;SDS011;7442;50.840;3.396;2024-03-08T12:16:51;13.05;;;6.80;;
14704;SDS011;7442;50.840;3.396;2024-03-08T12:19:21;10.38;;;6.40;;
14704;SDS011;7442;50.840;3.396;2024-03-08T12:21:56;20.12;;;6.95;;
14704;SDS011;7442;50.840;3.396;2024-03-08T12:24:23;10.38;;;5.65;;
14704;SDS011;7442;50.840;3.396;2024-03-08T12:26:55;14.25;;;6.15;;
14704;SDS011;7442;50.840;3.396;2024-03-08T12:29:26;11.00;;;6.30;;
14704;SDS011;7442;50.840;3.396;2024-03-08T12:31:59;13.75;;;6.87;;
14704;SDS011;7442;50.840;3.396;2024-03-08T12:34:30;14.65;;;7.15;;
14704;SDS011;7442;50.840;3.396;2024-03-08T12:37:00;19.55;;;8.15;;
14704;SDS011;7442;50.840;3.396;2024-03-08T12:39:30;15.05;;;6.90;;
14704;SDS011;7442;50.840;3.396;2024-03-08T12:42:01;26.80;;;6.80;;
14704;SDS011;7442;50.840;3.396;2024-03-08T12:44:34;12.98;;;6.55;;
14704;SDS011;7442;50.840;3.396;2024-03-08T12:47:04;18.40;;;7.00;;
14704;SDS011;7442;50.840;3.396;2024-03-08T12:49:34;14.78;;;7.58;;
14704;SDS011;7442;50.840;3.396;2024-03-08T12:52:08;13.95;;;6.75;;
14704;SDS011;7442;50.840;3.396;2024-03-08T12:54:39;17.27;;;7.03;;
14704;SDS011;7442;50.840;3.396;2024-03-08T12:57:11;9.75;;;7.47;;
14704;SDS011;7442;50.840;3.396;2024-03-08T12:59:41;14.18;;;7.30;;
14704;SDS011;7442;50.840;3.396;2024-03-08T13:02:11;12.03;;;6.70;;
14704;SDS011;7442;50.840;3.396;2024-03-08T13:04:41;11.25;;;6.72;;
14704;SDS011;7442;50.840;3.396;2024-03-08T13:07:12;9.45;;;5.92;;
14704;SDS011;7442;50.840;3.396;2024-03-08T13:09:44;12.18;;;6.03;;
14704;SDS011;7442;50.840;3.396;2024-03-08T13:12:14;12.03;;;6.30;;
14704;SDS011;7442;50.840;3.396;2024-03-08T13:14:44;10.10;;;6.47;;
14704;SDS011;7442;50.840;3.396;2024-03-08T13:17:16;9.23;;;5.58;;
14704;SDS011;7442;50.840;3.396;2024-03-08T13:19:46;13.30;;;6.80;;
14704;SDS011;7442;50.840;3.396;2024-03-08T13:22:16;10.65;;;5.92;;
14704;SDS011;7442;50.840;3.396;2024-03-08T13:24:47;12.03;;;6.03;;
14704;SDS011;7442;50.840;3.396;2024-03-08T13:27:18;12.07;;;5.87;;
14704;SDS011;7442;50.840;3.396;2024-03-08T13:29:48;7.90;;;5.95;;
14704;SDS011;7442;50.840;3.396;2024-03-08T13:32:19;12.28;;;6.55;;
14704;SDS011;7442;50.840;3.396;2024-03-08T13:34:53;12.80;;;7.30;;
14704;SDS011;7442;50.840;3.396;2024-03-08T13:37:23;10.68;;;7.33;;
14704;SDS011;7442;50.840;3.396;2024-03-08T13:39:56;12.05;;;7.37;;
14704;SDS011;7442;50.840;3.396;2024-03-08T13:42:26;12.33;;;7.00;;
14704;SDS011;7442;50.840;3.396;2024-03-08T13:44:56;11.30;;;6.55;;
14704;SDS011;7442;50.840;3.396;2024-03-08T13:47:26;10.55;;;6.28;;
14704;SDS011;7442;50.840;3.396;2024-03-08T13:49:56;13.72;;;6.97;;
14704;SDS011;7442;50.840;3.396;2024-03-08T13:52:28;17.55;;;7.22;;
14704;SDS011;7442;50.840;3.396;2024-03-08T13:54:58;10.53;;;6.87;;
14704;SDS011;7442;50.840;3.396;2024-03-08T13:57:28;10.28;;;6.28;;
14704;SDS011;7442;50.840;3.396;2024-03-08T13:59:58;9.83;;;6.00;;
14704;SDS011;7442;50.840;3.396;2024-03-08T14:02:28;9.80;;;6.60;;
14704;SDS011;7442;50.840;3.396;2024-03-08T14:04:59;10.15;;;5.75;;
14704;SDS011;7442;50.840;3.396;2024-03-08T14:07:31;9.45;;;5.97;;
14704;SDS011;7442;50.840;3.396;2024-03-08T14:10:01;9.98;;;6.17;;
14704;SDS011;7442;50.840;3.396;2024-03-08T14:12:32;9.13;;;5.95;;
14704;SDS011;7442;50.840;3.396;2024-03-08T14:15:03;8.23;;;6.33;;
14704;SDS011;7442;50.840;3.396;2024-03-08T14:17:34;9.60;;;6.05;;
14704;SDS011;7442;50.840;3.396;2024-03-08T14:20:12;8.80;;;6.05;;
14704;SDS011;7442;50.840;3.396;2024-03-08T14:22:42;7.70;;;6.00;;
14704;SDS011;7442;50.840;3.396;2024-03-08T14:25:12;8.78;;;5.78;;
14704;SDS011;7442;50.840;3.396;2024-03-08T14:27:44;10.68;;;6.12;;
14704;SDS011;7442;50.840;3.396;2024-03-08T14:30:15;8.85;;;5.95;;
14704;SDS011;7442;50.840;3.396;2024-03-08T14:32:46;12.13;;;6.00;;
14704;SDS011;7442;50.840;3.396;2024-03-08T14:35:16;8.70;;;6.12;;
14704;SDS011;7442;50.840;3.396;2024-03-08T14:37:48;7.03;;;6.10;;
14704;SDS011;7442;50.840;3.396;2024-03-08T14:40:18;8.98;;;6.35;;
14704;SDS011;7442;50.840;3.396;2024-03-08T14:42:50;16.50;;;9.43;;
14704;SDS011;7442;50.840;3.396;2024-03-08T14:45:21;21.25;;;8.55;;
14704;SDS011;7442;50.840;3.396;2024-03-08T14:47:52;15.15;;;8.33;;
14704;SDS011;7442;50.840;3.396;2024-03-08T14:50:24;12.88;;;7.08;;
14704;SDS011;7442;50.840;3.396;2024-03-08T14:52:54;17.57;;;7.08;;
14704;SDS011;7442;50.840;3.396;2024-03-08T14:55:24;9.53;;;7.35;;
14704;SDS011;7442;50.840;3.396;2024-03-08T14:57:54;16.05;;;7.03;;
14704;SDS011;7442;50.840;3.396;2024-03-08T15:00:24;11.63;;;6.22;;
14704;SDS011;7442;50.840;3.396;2024-03-08T15:03:03;9.50;;;6.03;;
14704;SDS011;7442;50.840;3.396;2024-03-08T15:05:34;13.88;;;6.15;;
14704;SDS011;7442;50.840;3.396;2024-03-08T15:08:06;12.18;;;5.95;;
14704;SDS011;7442;50.840;3.396;2024-03-08T15:10:39;8.25;;;5.70;;
14704;SDS011;7442;50.840;3.396;2024-03-08T15:13:09;10.38;;;6.15;;
14704;SDS011;7442;50.840;3.396;2024-03-08T15:15:44;7.90;;;5.97;;
14704;SDS011;7442;50.840;3.396;2024-03-08T15:18:14;9.48;;;6.65;;
14704;SDS011;7442;50.840;3.396;2024-03-08T15:20:44;8.23;;;5.70;;
14704;SDS011;7442;50.840;3.396;2024-03-08T15:23:15;11.20;;;6.25;;